Dallas, Texas
Traffic Map
Current Weather Conditions
Dallas, Texas
Broken Clouds
Broken Clouds
24°
Feels Like: 24°
Wind Chill: 24° Ceiling: 30000
Heat Index: 24° Visibility: 10mi
Dew Point: 15° Wind: 16mph
Humidity: 57% Direction: 150° (SSE)
Pressure: 29.77in Gusts: 29mph
Raw Report DataKDAL 240453Z 15014G25KT 10SM FEW170 BKN300 24/15 A2977 RMK AO2 SLP074 T02390150
Traffic Incident Summary
Active as of:
Severity:
Category:
InformationThere was an issue retrieving the traffic information for this location. Please try a different location or try again shortly.
Advertisements
At Last! Intellicast now available for iPhone and Android